Terminal Aerodrome Forecast
Issued by NWS

Home | Current Version | Previous Version | Graphics & Text | Print | Product List | Glossary On
Versions: 1 2 3 4 5 6 7 8 9 10 11 12 13 14 15 16
150
FTUS43 KMPX 220300 AAA
TAFRWF
TAF AMD
KRWF 220300Z 2203/2224 24007KT P6SM SCT100
     FM221700 31008KT P6SM BKN060=

USA.gov is the U.S. government's official web portal to all federal, state and local government web resources and services.